Time;durP1;ratioP1;P1;durP2;ratioP2;P2;SDS_P1;SDS_P2;PMS_P1;PMS_P2;Temp;Humidity;BMP_temperature;BMP_pressure;BME280_temperature;BME280_humidity;BME280_pressure;Samples;Min_cycle;Max_cycle;Signal;HPM_P1;HPM_P2
2022/10/02 00:00:41;;;;;;;14.18;10.93;;;;;;;;;;4894970;29;20033;-80
2022/10/02 00:03:15;;;;;;;21.00;10.82;;;;;;;;;;4872069;29;20093;-80
2022/10/02 00:05:44;;;;;;;12.32;10.07;;;;;;;;;;4884193;29;20033;-79
2022/10/02 00:08:13;;;;;;;16.98;10.63;;;;;;;;;;4886561;29;20033;-78
2022/10/02 00:10:48;;;;;;;10.77;9.52;;;;;;;;;;4878287;29;20101;-79
2022/10/02 00:13:21;;;;;;;12.13;9.85;;;;;;;;;;4887854;29;20033;-79
2022/10/02 00:15:47;;;;;;;13.50;9.73;;;;;;;;;;4882797;29;20045;-80
2022/10/02 00:18:15;;;;;;;15.15;9.75;;;;;;;;;;4876183;29;20132;-80
2022/10/02 00:20:44;;;;;;;13.50;9.63;;;;;;;;;;4891149;29;20057;-80
2022/10/02 00:23:15;;;;;;;13.13;10.18;;;;;;;;;;4884997;29;20029;-80
2022/10/02 00:25:47;;;;;;;12.77;9.85;;;;;;;;;;4896149;29;20029;-79
2022/10/02 00:28:13;;;;;;;12.80;9.70;;;;;;;;;;4881968;29;20013;-79
2022/10/02 00:30:48;;;;;;;12.95;9.65;;;;;;;;;;4873232;29;20045;-79
2022/10/02 00:33:20;;;;;;;14.27;10.77;;;;;;;;;;4874313;29;20043;-79
2022/10/02 00:35:56;;;;;;;14.05;10.32;;;;;;;;;;4880216;29;20434;-79
2022/10/02 00:38:37;;;;;;;11.13;9.65;;;;;;;;;;4882229;29;20021;-79
2022/10/02 00:41:19;;;;;;;16.95;10.20;;;;;;;;;;4887678;29;20058;-80
2022/10/02 00:44:04;;;;;;;13.32;9.48;;;;;;;;;;4864451;29;20041;-80
2022/10/02 00:46:45;;;;;;;12.55;9.55;;;;;;;;;;4884589;29;20052;-79
2022/10/02 00:49:17;;;;;;;11.32;9.65;;;;;;;;;;4878569;29;20029;-79
2022/10/02 00:51:50;;;;;;;16.65;9.68;;;;;;;;;;4885017;29;20482;-80
2022/10/02 00:54:26;;;;;;;12.52;9.68;;;;;;;;;;4871208;29;20049;-79
2022/10/02 00:57:07;;;;;;;14.45;9.40;;;;;;;;;;4885363;29;20009;-79
2022/10/02 01:00:03;;;;;;;12.43;9.68;;;;;;;;;;4873328;29;20033;-79
2022/10/02 01:02:44;;;;;;;15.10;9.70;;;;;;;;;;4864391;29;20053;-78
2022/10/02 01:05:11;;;;;;;14.77;9.52;;;;;;;;;;4846633;29;20400;-76
2022/10/02 01:07:39;;;;;;;11.05;9.00;;;;;;;;;;4854650;29;20539;-79
2022/10/02 01:10:06;;;;;;;15.77;9.70;;;;;;;;;;4840024;29;20368;-79
2022/10/02 01:12:32;;;;;;;14.25;9.55;;;;;;;;;;4862227;29;20158;-79
2022/10/02 01:14:58;;;;;;;12.43;9.45;;;;;;;;;;4848714;29;20083;-79
2022/10/02 01:17:34;;;;;;;13.20;9.23;;;;;;;;;;4867537;29;20060;-78
2022/10/02 01:20:03;;;;;;;16.05;9.65;;;;;;;;;;4863085;29;20068;-80
2022/10/02 01:22:29;;;;;;;15.95;10.57;;;;;;;;;;4844493;29;20081;-79
2022/10/02 01:24:56;;;;;;;15.30;10.48;;;;;;;;;;4855332;29;20033;-79
2022/10/02 01:27:22;;;;;;;10.60;9.27;;;;;;;;;;4848218;29;20118;-79
2022/10/02 01:29:52;;;;;;;16.35;10.30;;;;;;;;;;4862486;29;20087;-81
2022/10/02 01:32:18;;;;;;;15.73;10.18;;;;;;;;;;4849877;29;20030;-79
2022/10/02 01:34:45;;;;;;;19.67;10.70;;;;;;;;;;4864695;29;20036;-79
2022/10/02 01:37:12;;;;;;;13.98;10.05;;;;;;;;;;4846067;29;20154;-79
2022/10/02 01:39:38;;;;;;;13.52;10.13;;;;;;;;;;4871033;29;20100;-79
2022/10/02 01:42:04;;;;;;;18.90;9.95;;;;;;;;;;4886887;29;20017;-79
2022/10/02 01:44:31;;;;;;;15.98;9.77;;;;;;;;;;4869469;29;20041;-79
2022/10/02 01:46:58;;;;;;;12.70;9.25;;;;;;;;;;4863151;29;20041;-79
2022/10/02 01:49:40;;;;;;;14.82;9.90;;;;;;;;;;4886312;29;20036;-78
2022/10/02 01:52:25;;;;;;;13.93;9.32;;;;;;;;;;4880596;29;20066;-79
2022/10/02 01:54:51;;;;;;;13.38;9.23;;;;;;;;;;4874706;29;20033;-79
2022/10/02 01:57:32;;;;;;;15.60;9.90;;;;;;;;;;4876060;29;20579;-79
2022/10/02 02:00:07;;;;;;;13.88;9.80;;;;;;;;;;4882320;29;20052;-80
2022/10/02 02:02:45;;;;;;;13.15;9.43;;;;;;;;;;4877007;29;20041;-78
2022/10/02 02:05:32;;;;;;;14.25;9.45;;;;;;;;;;4889533;29;20025;-79
2022/10/02 02:08:08;;;;;;;13.30;8.88;;;;;;;;;;4884961;29;20508;-80
2022/10/02 02:10:41;;;;;;;12.40;9.10;;;;;;;;;;4880428;29;20044;-79
2022/10/02 02:13:27;;;;;;;12.73;8.90;;;;;;;;;;4892513;29;20119;-79
2022/10/02 02:16:11;;;;;;;14.60;8.52;;;;;;;;;;4888759;29;20038;-79
2022/10/02 02:18:56;;;;;;;12.80;8.23;;;;;;;;;;4895139;29;20036;-79
2022/10/02 02:21:24;;;;;;;12.68;8.10;;;;;;;;;;4874273;29;20123;-79
2022/10/02 02:23:51;;;;;;;18.73;11.70;;;;;;;;;;4872658;29;20021;-80
2022/10/02 02:26:19;;;;;;;20.98;12.57;;;;;;;;;;4880931;29;20133;-79
2022/10/02 02:29:05;;;;;;;15.65;9.77;;;;;;;;;;4875278;29;20033;-79
2022/10/02 02:31:55;;;;;;;13.55;8.38;;;;;;;;;;4886183;29;20065;-79
2022/10/02 02:34:23;;;;;;;17.42;8.23;;;;;;;;;;4901423;29;20122;-78
2022/10/02 02:36:52;;;;;;;8.98;7.78;;;;;;;;;;4894004;29;20017;-79
2022/10/02 02:39:26;;;;;;;10.23;7.47;;;;;;;;;;4887408;29;20059;-79
2022/10/02 02:41:55;;;;;;;12.82;7.32;;;;;;;;;;4886848;29;20562;-79
2022/10/02 02:44:27;;;;;;;9.85;7.28;;;;;;;;;;4873108;29;20040;-81
2022/10/02 02:47:02;;;;;;;8.00;6.45;;;;;;;;;;4867342;29;20017;-79
2022/10/02 02:49:30;;;;;;;9.70;6.95;;;;;;;;;;4885866;29;20029;-79
2022/10/02 02:51:57;;;;;;;13.85;5.88;;;;;;;;;;4881171;29;20559;-79
2022/10/02 02:54:27;;;;;;;13.18;6.53;;;;;;;;;;4882844;29;20029;-79
2022/10/02 02:56:55;;;;;;;11.05;6.18;;;;;;;;;;4885409;29;20033;-79
2022/10/02 02:59:22;;;;;;;8.80;6.03;;;;;;;;;;4883655;29;20025;-79
2022/10/02 03:01:48;;;;;;;7.65;6.07;;;;;;;;;;4883372;29;20124;-78
2022/10/02 03:04:15;;;;;;;10.73;6.13;;;;;;;;;;4885205;29;20498;-79
2022/10/02 03:06:42;;;;;;;16.70;6.18;;;;;;;;;;4893089;29;20044;-79
2022/10/02 03:09:19;;;;;;;6.97;5.60;;;;;;;;;;4882378;29;20048;-79
2022/10/02 03:11:52;;;;;;;9.57;5.63;;;;;;;;;;4867393;29;20074;-79
2022/10/02 03:14:21;;;;;;;8.85;5.50;;;;;;;;;;4897945;29;20037;-79
2022/10/02 03:16:53;;;;;;;12.32;4.93;;;;;;;;;;4882648;29;20454;-79
2022/10/02 03:19:33;;;;;;;7.93;4.97;;;;;;;;;;4870821;29;20037;-79
2022/10/02 03:22:10;;;;;;;5.50;4.50;;;;;;;;;;4896147;29;20056;-78
2022/10/02 03:24:55;;;;;;;6.22;4.90;;;;;;;;;;4886109;29;20033;-78
2022/10/02 03:27:41;;;;;;;9.52;4.47;;;;;;;;;;4887488;29;20017;-78
2022/10/02 03:30:14;;;;;;;10.35;4.82;;;;;;;;;;4896426;29;20080;-79
2022/10/02 03:32:43;;;;;;;7.47;4.75;;;;;;;;;;4883187;29;20064;-79
2022/10/02 03:35:11;;;;;;;10.77;5.15;;;;;;;;;;4873511;29;20029;-79
2022/10/02 03:37:39;;;;;;;7.32;5.28;;;;;;;;;;4884661;29;20028;-80
2022/10/02 03:40:06;;;;;;;9.35;5.18;;;;;;;;;;4892084;29;20112;-79
2022/10/02 03:42:34;;;;;;;8.52;5.07;;;;;;;;;;4872120;29;20077;-79
2022/10/02 03:45:00;;;;;;;6.82;4.90;;;;;;;;;;4885062;29;20072;-79
2022/10/02 03:47:26;;;;;;;7.57;4.78;;;;;;;;;;4877384;29;20093;-79
2022/10/02 03:49:52;;;;;;;7.15;4.90;;;;;;;;;;4867212;29;20023;-79
2022/10/02 03:52:21;;;;;;;7.55;4.88;;;;;;;;;;4903023;29;20041;-79
2022/10/02 03:54:48;;;;;;;7.28;4.78;;;;;;;;;;4886576;29;20036;-79
2022/10/02 03:57:20;;;;;;;6.03;4.45;;;;;;;;;;4868956;29;20037;-79
2022/10/02 04:00:01;;;;;;;5.78;4.45;;;;;;;;;;4884385;29;20065;-80
2022/10/02 04:02:36;;;;;;;7.07;4.63;;;;;;;;;;4892912;29;20041;-79
2022/10/02 04:05:13;;;;;;;6.25;5.22;;;;;;;;;;4886781;29;20060;-79
2022/10/02 04:07:44;;;;;;;7.53;4.82;;;;;;;;;;4886029;29;20070;-79
2022/10/02 04:10:23;;;;;;;7.32;4.50;;;;;;;;;;4884253;29;20074;-79
2022/10/02 04:12:51;;;;;;;5.45;4.68;;;;;;;;;;4890703;29;20037;-79
2022/10/02 04:15:23;;;;;;;6.72;4.18;;;;;;;;;;4882204;29;20052;-78
2022/10/02 04:17:52;;;;;;;9.75;4.45;;;;;;;;;;4890410;29;20029;-79
2022/10/02 04:20:20;;;;;;;7.15;4.50;;;;;;;;;;4886416;29;20036;-79
2022/10/02 04:22:49;;;;;;;9.10;4.10;;;;;;;;;;4886836;29;20047;-79
2022/10/02 04:25:28;;;;;;;4.53;3.72;;;;;;;;;;4886678;29;20050;-79
2022/10/02 04:27:54;;;;;;;8.20;4.10;;;;;;;;;;4888688;29;20052;-78
2022/10/02 04:30:21;;;;;;;6.03;3.83;;;;;;;;;;4886346;29;20089;-78
2022/10/02 04:32:48;;;;;;;6.70;4.20;;;;;;;;;;4871082;29;20088;-79
2022/10/02 04:35:17;;;;;;;7.07;3.95;;;;;;;;;;4892970;29;20407;-79
2022/10/02 04:38:06;;;;;;;4.78;3.75;;;;;;;;;;4876951;29;20117;-79
2022/10/02 04:40:39;;;;;;;5.43;3.72;;;;;;;;;;4882157;29;20440;-78
2022/10/02 04:43:25;;;;;;;7.57;4.32;;;;;;;;;;4884714;29;20040;-78
2022/10/02 04:45:51;;;;;;;7.13;3.95;;;;;;;;;;4872877;29;20225;-77
2022/10/02 04:48:30;;;;;;;6.05;4.13;;;;;;;;;;4877135;29;20059;-78
2022/10/02 04:51:32;;;;;;;8.85;3.80;;;;;;;;;;4880139;29;20033;-78
2022/10/02 04:54:04;;;;;;;4.50;3.92;;;;;;;;;;4829887;29;20115;-79
2022/10/02 04:56:30;;;;;;;5.75;4.20;;;;;;;;;;4823928;29;20082;-78
2022/10/02 04:59:02;;;;;;;7.93;4.25;;;;;;;;;;4819448;29;20039;-78
2022/10/02 05:01:34;;;;;;;6.60;4.07;;;;;;;;;;4812175;29;20046;-78
2022/10/02 05:04:18;;;;;;;8.77;4.95;;;;;;;;;;4822597;29;20026;-78
2022/10/02 05:06:44;;;;;;;5.18;3.80;;;;;;;;;;4815447;29;20493;-78
2022/10/02 05:11:46;;;;;;;7.28;4.05;;;;;;;;;;5193407;23;20566;-82
2022/10/02 05:14:12;;;;;;;7.00;3.72;;;;;;;;;;4895772;29;20028;-78
2022/10/02 05:16:44;;;;;;;7.53;3.40;;;;;;;;;;4896385;29;20009;-78
2022/10/02 05:19:32;;;;;;;7.03;3.25;;;;;;;;;;4884995;29;20051;-77
2022/10/02 05:22:10;;;;;;;4.88;3.13;;;;;;;;;;4883028;29;20487;-78
2022/10/02 05:24:44;;;;;;;10.30;3.80;;;;;;;;;;4911973;29;20021;-77
2022/10/02 05:27:37;;;;;;;8.15;4.10;;;;;;;;;;4859129;29;20034;-79
2022/10/02 05:30:22;;;;;;;6.22;3.80;;;;;;;;;;4840337;29;20045;-81
2022/10/02 05:33:07;;;;;;;6.57;3.80;;;;;;;;;;4836341;29;20070;-78
2022/10/02 05:38:27;;;;;;;6.93;3.40;;;;;;;;;;4928672;23;20052;-76
2022/10/02 05:51:42;;;;;;;53.70;31.95;;;;;;;;;;4890571;23;20053;-80
2022/10/02 05:54:34;;;;;;;20.35;11.32;;;;;;;;;;4898372;29;20037;-77
2022/10/02 05:57:21;;;;;;;12.10;6.65;;;;;;;;;;4838185;29;20105;-85
2022/10/02 05:59:59;;;;;;;7.60;3.70;;;;;;;;;;4836970;29;20026;-81
2022/10/02 06:02:47;;;;;;;7.53;3.97;;;;;;;;;;4862980;29;20036;-82
2022/10/02 06:05:34;;;;;;;5.32;3.40;;;;;;;;;;4863227;29;20022;-86
2022/10/02 06:08:29;;;;;;;6.50;3.95;;;;;;;;;;4862263;29;20048;-87
2022/10/02 06:12:06;;;;;;;10.32;3.50;;;;;;;;;;4839911;29;20030;-84
2022/10/02 06:15:01;;;;;;;8.25;3.60;;;;;;;;;;4800879;29;20036;-87
2022/10/02 06:18:03;;;;;;;3.72;3.40;;;;;;;;;;4792265;29;20043;-86
2022/10/02 06:20:34;;;;;;;5.97;3.65;;;;;;;;;;4775460;29;20043;-81
2022/10/02 06:23:27;;;;;;;7.60;3.47;;;;;;;;;;4785003;29;20070;-82
2022/10/02 06:26:00;;;;;;;8.00;3.90;;;;;;;;;;4772180;30;20051;-79
2022/10/02 06:28:49;;;;;;;7.55;3.90;;;;;;;;;;4761333;30;20048;-79
2022/10/02 06:31:20;;;;;;;4.93;3.70;;;;;;;;;;4753095;30;20060;-78
2022/10/02 06:33:46;;;;;;;7.13;3.60;;;;;;;;;;4789843;29;20043;-78
2022/10/02 06:36:30;;;;;;;8.13;3.90;;;;;;;;;;4809024;29;20102;-81
2022/10/02 06:38:57;;;;;;;7.10;3.80;;;;;;;;;;4825308;29;20035;-78
2022/10/02 06:41:46;;;;;;;6.53;3.50;;;;;;;;;;4810274;29;20043;-78
2022/10/02 06:44:34;;;;;;;8.88;5.63;;;;;;;;;;4831134;29;20037;-80
2022/10/02 06:47:13;;;;;;;20.48;4.82;;;;;;;;;;4859569;29;20078;-81
2022/10/02 06:49:56;;;;;;;9.63;4.32;;;;;;;;;;4876271;29;20377;-80
2022/10/02 06:52:28;;;;;;;4.82;3.95;;;;;;;;;;4882910;29;20113;-79
2022/10/02 06:55:14;;;;;;;5.25;3.88;;;;;;;;;;4885585;29;20057;-78
2022/10/02 06:57:47;;;;;;;8.68;3.80;;;;;;;;;;4875292;29;20033;-77
2022/10/02 07:00:16;;;;;;;3.92;3.53;;;;;;;;;;4884141;29;20033;-78
2022/10/02 07:03:01;;;;;;;5.38;3.70;;;;;;;;;;4888461;29;20037;-78
2022/10/02 07:06:00;;;;;;;4.30;3.90;;;;;;;;;;4893216;29;20009;-78
2022/10/02 07:08:26;;;;;;;6.80;3.72;;;;;;;;;;4816083;29;20046;-78
2022/10/02 07:11:04;;;;;;;4.97;3.95;;;;;;;;;;4824615;29;20007;-79
2022/10/02 07:13:52;;;;;;;10.68;4.07;;;;;;;;;;4830732;29;20037;-79
2022/10/02 07:16:30;;;;;;;4.72;3.83;;;;;;;;;;4830374;29;20039;-80
2022/10/02 07:19:19;;;;;;;6.03;3.95;;;;;;;;;;4828369;29;20091;-82
2022/10/02 07:22:05;;;;;;;5.78;3.65;;;;;;;;;;4757082;30;20108;-81
2022/10/02 07:24:38;;;;;;;4.05;3.35;;;;;;;;;;4756710;30;20045;-83
2022/10/02 07:27:34;;;;;;;6.65;3.60;;;;;;;;;;4756006;30;20066;-82
2022/10/02 07:30:24;;;;;;;5.75;4.10;;;;;;;;;;4750649;29;20052;-84
2022/10/02 07:33:08;;;;;;;5.82;3.70;;;;;;;;;;4755619;30;20033;-84
2022/10/02 07:35:55;;;;;;;5.13;3.90;;;;;;;;;;4757356;30;20028;-82
2022/10/02 07:38:55;;;;;;;7.75;3.83;;;;;;;;;;4775384;30;20024;-83
2022/10/02 07:42:00;;;;;;;8.38;3.90;;;;;;;;;;4759736;30;20084;-81
2022/10/02 07:44:48;;;;;;;6.50;4.97;;;;;;;;;;4778033;29;20071;-80
2022/10/02 07:47:33;;;;;;;5.82;4.15;;;;;;;;;;4794011;29;20059;-80
2022/10/02 07:50:08;;;;;;;6.18;4.18;;;;;;;;;;4792799;30;20118;-84
2022/10/02 07:52:34;;;;;;;8.32;4.20;;;;;;;;;;4808792;29;20071;-84
2022/10/02 07:55:07;;;;;;;6.68;4.20;;;;;;;;;;4801993;30;20111;-83
2022/10/02 07:57:45;;;;;;;6.27;4.00;;;;;;;;;;4795366;29;20051;-84
2022/10/02 08:00:31;;;;;;;9.30;4.25;;;;;;;;;;4850169;29;20041;-81
2022/10/02 08:03:09;;;;;;;8.02;4.20;;;;;;;;;;4839956;29;20034;-81
2022/10/02 08:05:49;;;;;;;5.75;4.05;;;;;;;;;;4858174;29;20049;-83
2022/10/02 08:08:42;;;;;;;12.20;4.25;;;;;;;;;;4872183;29;20029;-82
2022/10/02 08:11:42;;;;;;;5.20;3.88;;;;;;;;;;4874454;29;20089;-83
2022/10/02 08:14:41;;;;;;;6.38;3.40;;;;;;;;;;4847667;29;20048;-82
2022/10/02 08:17:28;;;;;;;3.63;3.20;;;;;;;;;;4809281;29;20027;-79
2022/10/02 08:19:57;;;;;;;7.40;4.28;;;;;;;;;;4818388;29;20038;-83
2022/10/02 08:22:29;;;;;;;6.50;4.65;;;;;;;;;;4818487;29;20278;-84
2022/10/02 08:25:10;;;;;;;4.22;2.80;;;;;;;;;;4831427;29;20499;-80
2022/10/02 08:27:49;;;;;;;4.07;3.10;;;;;;;;;;4819538;29;20043;-80
2022/10/02 08:30:17;;;;;;;5.05;2.75;;;;;;;;;;4808299;29;20126;-79
2022/10/02 08:32:46;;;;;;;3.75;2.70;;;;;;;;;;4829221;29;20050;-79
2022/10/02 08:35:18;;;;;;;4.05;2.85;;;;;;;;;;4816998;29;20053;-79
2022/10/02 08:37:44;;;;;;;2.30;1.98;;;;;;;;;;4813066;29;20042;-79
2022/10/02 08:40:34;;;;;;;2.78;1.80;;;;;;;;;;4829707;29;20046;-78
2022/10/02 08:43:31;;;;;;;3.72;2.05;;;;;;;;;;4832093;29;20038;-81
2022/10/02 08:46:26;;;;;;;5.85;2.17;;;;;;;;;;4764906;30;20117;-79
2022/10/02 08:48:54;;;;;;;5.15;2.28;;;;;;;;;;4728686;30;20029;-80
2022/10/02 08:51:24;;;;;;;3.22;1.80;;;;;;;;;;4731922;30;20038;-79
2022/10/02 08:54:05;;;;;;;2.33;1.80;;;;;;;;;;4748192;30;20041;-78
2022/10/02 08:56:46;;;;;;;3.33;2.10;;;;;;;;;;4761911;30;20063;-79
2022/10/02 08:59:33;;;;;;;5.20;1.90;;;;;;;;;;4766382;29;20040;-78
2022/10/02 09:02:12;;;;;;;3.92;1.90;;;;;;;;;;4765971;30;20028;-81
2022/10/02 09:05:13;;;;;;;3.08;1.83;;;;;;;;;;4757116;30;20036;-79
2022/10/02 09:07:55;;;;;;;2.03;1.63;;;;;;;;;;4742508;30;20213;-79
2022/10/02 09:10:37;;;;;;;4.70;1.73;;;;;;;;;;4741783;30;20033;-77
2022/10/02 09:13:06;;;;;;;3.60;2.03;;;;;;;;;;4736900;30;20049;-77
2022/10/02 09:15:39;;;;;;;4.38;2.35;;;;;;;;;;4737161;30;20079;-77
2022/10/02 09:18:05;;;;;;;4.50;2.10;;;;;;;;;;4741457;30;20040;-77
2022/10/02 09:20:43;;;;;;;4.88;1.90;;;;;;;;;;4742286;30;20047;-78
2022/10/02 09:23:27;;;;;;;3.38;2.00;;;;;;;;;;4773645;30;20103;-78
2022/10/02 09:26:14;;;;;;;6.20;2.30;;;;;;;;;;4816990;29;20038;-76
2022/10/02 09:28:49;;;;;;;4.80;2.40;;;;;;;;;;4800409;29;20452;-77
2022/10/02 09:31:23;;;;;;;5.65;1.95;;;;;;;;;;4809153;29;20038;-76
2022/10/02 09:34:07;;;;;;;2.38;1.90;;;;;;;;;;4807566;29;20042;-76
2022/10/02 09:36:39;;;;;;;2.47;1.90;;;;;;;;;;4804245;29;20050;-77
2022/10/02 09:39:24;;;;;;;3.70;2.38;;;;;;;;;;4804289;29;20047;-78
2022/10/02 09:42:08;;;;;;;6.97;2.30;;;;;;;;;;4801067;29;20120;-77
2022/10/02 09:44:57;;;;;;;6.05;2.60;;;;;;;;;;4828498;29;21944;-78
2022/10/02 09:47:36;;;;;;;4.45;2.72;;;;;;;;;;4819190;29;20091;-77
2022/10/02 09:50:27;;;;;;;7.68;2.63;;;;;;;;;;4811636;29;20050;-78
2022/10/02 09:52:59;;;;;;;4.78;2.25;;;;;;;;;;4824915;29;20061;-79
2022/10/02 09:55:48;;;;;;;7.63;3.15;;;;;;;;;;4816902;29;20041;-79
2022/10/02 09:58:26;;;;;;;4.97;2.40;;;;;;;;;;4822889;29;20030;-79
2022/10/02 10:01:01;;;;;;;8.55;2.60;;;;;;;;;;4816518;29;20103;-80
2022/10/02 10:03:27;;;;;;;3.42;2.00;;;;;;;;;;4830238;29;20105;-79
2022/10/02 10:05:53;;;;;;;7.78;2.83;;;;;;;;;;4848029;29;20041;-79
2022/10/02 10:08:39;;;;;;;2.33;2.08;;;;;;;;;;4868528;29;20040;-79
2022/10/02 10:11:10;;;;;;;3.05;2.08;;;;;;;;;;4885765;29;20032;-78
2022/10/02 10:13:59;;;;;;;3.55;2.30;;;;;;;;;;4903152;29;20115;-79
2022/10/02 10:16:45;;;;;;;3.85;2.10;;;;;;;;;;4898402;29;20033;-79
2022/10/02 10:19:31;;;;;;;6.90;2.17;;;;;;;;;;4900249;29;20037;-78
2022/10/02 10:22:01;;;;;;;3.22;1.83;;;;;;;;;;4888988;29;20506;-80
2022/10/02 10:24:55;;;;;;;3.40;2.03;;;;;;;;;;4887546;29;20084;-79
2022/10/02 10:27:48;;;;;;;4.63;2.13;;;;;;;;;;4817317;29;20039;-79
2022/10/02 10:30:20;;;;;;;3.38;2.20;;;;;;;;;;4741205;30;20049;-79
2022/10/02 10:33:05;;;;;;;5.53;2.33;;;;;;;;;;4747886;30;20484;-78
2022/10/02 10:38:31;;;;;;;6.05;2.10;;;;;;;;;;4748763;30;20055;-80
2022/10/02 10:39:17;;;;;;;8.65;2.50;;;;;;;;;;4727036;30;20064;-79
2022/10/02 10:42:17;;;;;;;8.48;1.95;;;;;;;;;;4691243;30;20038;-79
2022/10/02 10:45:06;;;;;;;6.28;2.15;;;;;;;;;;4674667;30;20042;-79
2022/10/02 10:47:56;;;;;;;3.38;1.90;;;;;;;;;;4675538;30;20054;-79
2022/10/02 10:50:23;;;;;;;8.18;3.03;;;;;;;;;;4607765;31;20048;-79
2022/10/02 10:53:08;;;;;;;6.00;2.47;;;;;;;;;;4627963;31;20055;-78
2022/10/02 10:55:37;;;;;;;9.52;3.58;;;;;;;;;;4612350;31;20075;-78
2022/10/02 10:58:20;;;;;;;8.48;3.85;;;;;;;;;;4612370;31;20464;-80
2022/10/02 11:01:12;;;;;;;6.77;2.60;;;;;;;;;;4606165;31;20052;-78
2022/10/02 11:03:59;;;;;;;7.43;2.80;;;;;;;;;;4620515;30;20060;-79
2022/10/02 11:06:49;;;;;;;4.47;1.88;;;;;;;;;;4630982;30;20054;-78
2022/10/02 11:09:25;;;;;;;4.68;2.28;;;;;;;;;;4675288;30;20160;-78
2022/10/02 11:12:01;;;;;;;4.00;2.15;;;;;;;;;;4689514;30;20052;-79
2022/10/02 11:14:36;;;;;;;3.70;1.90;;;;;;;;;;4686886;30;20176;-79
2022/10/02 11:17:11;;;;;;;7.03;2.33;;;;;;;;;;4684388;30;20030;-80
2022/10/02 11:19:40;;;;;;;6.75;2.95;;;;;;;;;;4719071;30;20048;-79
2022/10/02 11:22:25;;;;;;;7.95;2.47;;;;;;;;;;4799872;29;20137;-78
2022/10/02 11:25:18;;;;;;;4.78;2.40;;;;;;;;;;4792008;29;20523;-79
2022/10/02 11:27:45;;;;;;;3.08;2.17;;;;;;;;;;4843794;29;20041;-79
2022/10/02 11:30:48;;;;;;;7.82;3.95;;;;;;;;;;4878380;29;20034;-79
2022/10/02 11:33:37;;;;;;;4.75;2.22;;;;;;;;;;4850087;29;20069;-79
2022/10/02 11:36:41;;;;;;;3.83;2.15;;;;;;;;;;4849839;29;20222;-79
2022/10/02 11:39:19;;;;;;;4.53;1.85;;;;;;;;;;4810905;29;20053;-78
2022/10/02 11:42:04;;;;;;;5.00;2.40;;;;;;;;;;4811079;29;20548;-79
2022/10/02 11:44:30;;;;;;;3.40;2.03;;;;;;;;;;4800956;29;20405;-78
2022/10/02 11:47:18;;;;;;;3.72;2.10;;;;;;;;;;4806587;29;20038;-78
2022/10/02 11:49:48;;;;;;;6.68;3.50;;;;;;;;;;4812133;29;20088;-78
2022/10/02 11:52:27;;;;;;;8.30;2.33;;;;;;;;;;4798547;29;20444;-78
2022/10/02 11:55:03;;;;;;;6.05;2.10;;;;;;;;;;4806811;29;20111;-78
2022/10/02 11:57:48;;;;;;;5.78;2.42;;;;;;;;;;4812241;29;20089;-79
2022/10/02 12:00:14;;;;;;;4.10;2.20;;;;;;;;;;4796568;29;20039;-78
2022/10/02 12:02:44;;;;;;;6.18;2.15;;;;;;;;;;4807743;29;20089;-77
2022/10/02 12:05:32;;;;;;;5.45;2.50;;;;;;;;;;4810945;29;20038;-77
2022/10/02 12:08:18;;;;;;;9.13;2.30;;;;;;;;;;4823939;29;20433;-78
2022/10/02 12:10:45;;;;;;;7.30;2.30;;;;;;;;;;4809294;29;20051;-79
2022/10/02 12:13:19;;;;;;;7.80;3.10;;;;;;;;;;4812228;29;20642;-78
2022/10/02 12:15:48;;;;;;;7.00;3.05;;;;;;;;;;4833444;29;20416;-78
2022/10/02 12:18:17;;;;;;;6.75;3.10;;;;;;;;;;4845477;29;20034;-78
2022/10/02 12:27:10;;;;;;;7.82;2.65;;;;;;;;;;4849997;29;20083;-79
2022/10/02 12:29:42;;;;;;;3.90;1.80;;;;;;;;;;4832620;29;20501;-79
2022/10/02 12:32:19;;;;;;;3.90;2.05;;;;;;;;;;4849726;29;20030;-78
2022/10/02 12:34:47;;;;;;;4.45;1.90;;;;;;;;;;4845431;29;20516;-77
2022/10/02 12:37:33;;;;;;;5.32;2.10;;;;;;;;;;4846344;29;20102;-78
2022/10/02 12:40:18;;;;;;;2.95;1.70;;;;;;;;;;4774179;30;20054;-77
2022/10/02 12:42:59;;;;;;;4.78;2.17;;;;;;;;;;4775592;30;20406;-78
2022/10/02 12:45:57;;;;;;;6.90;2.40;;;;;;;;;;4789042;30;20536;-78
2022/10/02 12:48:35;;;;;;;8.10;3.97;;;;;;;;;;4758594;30;20044;-78
2022/10/02 12:51:10;;;;;;;6.18;4.07;;;;;;;;;;4772533;30;20035;-79
2022/10/02 12:53:57;;;;;;;7.47;2.17;;;;;;;;;;4775219;30;20071;-80
2022/10/02 12:56:33;;;;;;;5.38;2.38;;;;;;;;;;4778132;30;20051;-79
2022/10/02 12:59:34;;;;;;;6.13;2.03;;;;;;;;;;4765460;30;20050;-78
2022/10/02 13:02:09;;;;;;;3.47;1.77;;;;;;;;;;4776080;30;20061;-80
2022/10/02 13:04:58;;;;;;;3.78;1.92;;;;;;;;;;4780757;30;20043;-80
2022/10/02 13:07:30;;;;;;;5.15;2.47;;;;;;;;;;4724495;30;20114;-80
2022/10/02 13:09:56;;;;;;;13.23;2.20;;;;;;;;;;4729214;30;20040;-79
2022/10/02 13:12:22;;;;;;;4.32;1.88;;;;;;;;;;4727356;30;20048;-78
2022/10/02 13:15:24;;;;;;;4.07;1.90;;;;;;;;;;4727821;30;20048;-83
2022/10/02 13:18:08;;;;;;;4.22;1.92;;;;;;;;;;4767975;30;20031;-78
2022/10/02 13:20:39;;;;;;;4.03;1.90;;;;;;;;;;4815878;29;20078;-79
2022/10/02 13:23:05;;;;;;;6.30;2.13;;;;;;;;;;4814812;29;20049;-79
2022/10/02 13:25:45;;;;;;;4.50;1.90;;;;;;;;;;4814650;29;20043;-79
2022/10/02 13:28:18;;;;;;;5.43;2.10;;;;;;;;;;4814331;29;20035;-79
2022/10/02 13:30:45;;;;;;;;;;;;;;;;;;4799411;29;20043;-79
2022/10/02 13:33:33;;;;;;;16.50;2.75;;;;;;;;;;4812637;29;19909;-78
2022/10/02 13:36:09;;;;;;;6.95;2.20;;;;;;;;;;4816333;29;20038;-81
2022/10/02 13:38:45;;;;;;;4.82;2.20;;;;;;;;;;4812910;29;20051;-79
2022/10/02 13:41:29;;;;;;;4.32;1.90;;;;;;;;;;4799454;29;20039;-78
2022/10/02 13:44:14;;;;;;;3.85;1.67;;;;;;;;;;4829703;29;20113;-78
2022/10/02 13:46:50;;;;;;;7.20;2.50;;;;;;;;;;4863345;29;20021;-77
2022/10/02 13:49:31;;;;;;;4.38;2.08;;;;;;;;;;4869806;29;20022;-78
2022/10/02 13:52:03;;;;;;;3.97;2.00;;;;;;;;;;4884621;29;20088;-78
2022/10/02 13:54:51;;;;;;;3.17;1.90;;;;;;;;;;4887541;29;20056;-79
2022/10/02 13:57:18;;;;;;;6.80;3.95;;;;;;;;;;4891446;29;20475;-79
2022/10/02 13:59:52;;;;;;;8.00;5.30;;;;;;;;;;4907358;29;20113;-81
2022/10/02 14:02:38;;;;;;;8.48;3.08;;;;;;;;;;4898317;29;20051;-81
2022/10/02 14:05:30;;;;;;;13.60;8.40;;;;;;;;;;4882381;29;20053;-78
2022/10/02 14:08:26;;;;;;;6.05;3.72;;;;;;;;;;4889832;29;20058;-86
2022/10/02 14:11:11;;;;;;;8.77;3.35;;;;;;;;;;4858181;29;20068;-78
2022/10/02 14:13:57;;;;;;;6.05;2.25;;;;;;;;;;4852847;29;20036;-78
2022/10/02 14:16:33;;;;;;;3.97;1.80;;;;;;;;;;4856125;29;20094;-78
2022/10/02 14:18:59;;;;;;;7.78;2.28;;;;;;;;;;4853160;29;20061;-78
2022/10/02 14:21:31;;;;;;;4.78;2.30;;;;;;;;;;4837317;29;20162;-78
2022/10/02 14:23:57;;;;;;;5.85;2.80;;;;;;;;;;4835369;29;20034;-78
2022/10/02 14:26:23;;;;;;;8.35;3.67;;;;;;;;;;4857249;29;20090;-78
2022/10/02 14:29:04;;;;;;;6.68;2.75;;;;;;;;;;4856860;29;20042;-77
2022/10/02 14:31:49;;;;;;;7.50;2.40;;;;;;;;;;4857527;29;20089;-78
2022/10/02 14:34:17;;;;;;;3.95;1.67;;;;;;;;;;4846909;29;20086;-78
2022/10/02 14:36:53;;;;;;;9.20;5.00;;;;;;;;;;4854963;29;20495;-78
2022/10/02 14:39:36;;;;;;;9.80;3.50;;;;;;;;;;4839223;29;20035;-77
2022/10/02 14:42:34;;;;;;;8.05;4.15;;;;;;;;;;4856402;29;20054;-79
2022/10/02 14:45:38;;;;;;;7.35;3.22;;;;;;;;;;4853469;29;20065;-78
2022/10/02 14:48:23;;;;;;;3.95;2.30;;;;;;;;;;4795034;29;20050;-79
2022/10/02 14:50:49;;;;;;;8.70;5.93;;;;;;;;;;4800103;30;20056;-79
2022/10/02 14:53:31;;;;;;;9.00;4.30;;;;;;;;;;4813559;29;20061;-78
2022/10/02 14:56:15;;;;;;;45.38;35.10;;;;;;;;;;4818848;29;20035;-78
2022/10/02 14:58:48;;;;;;;8.70;5.18;;;;;;;;;;4818718;29;20046;-79
2022/10/02 15:01:14;;;;;;;11.35;7.30;;;;;;;;;;4819369;29;20060;-78
2022/10/02 15:03:40;;;;;;;27.35;14.65;;;;;;;;;;4819373;29;20100;-78
2022/10/02 15:06:20;;;;;;;30.35;21.15;;;;;;;;;;4816708;29;20035;-78
2022/10/02 15:08:55;;;;;;;20.15;11.63;;;;;;;;;;4809998;29;20027;-78
2022/10/02 15:11:48;;;;;;;8.32;4.72;;;;;;;;;;4812867;29;20066;-77
2022/10/02 15:14:21;;;;;;;5.57;2.95;;;;;;;;;;4805875;29;20051;-78
2022/10/02 15:19:45;;;;;;;6.10;2.38;;;;;;;;;;4815095;29;20037;-78
2022/10/02 15:22:21;;;;;;;6.60;2.70;;;;;;;;;;4803038;29;20039;-77
2022/10/02 15:24:58;;;;;;;15.40;3.08;;;;;;;;;;4902771;29;20029;-78
2022/10/02 15:27:42;;;;;;;3.85;2.03;;;;;;;;;;4909973;29;20045;-77
2022/10/02 15:30:27;;;;;;;9.63;2.25;;;;;;;;;;4911099;29;20044;-78
2022/10/02 15:33:08;;;;;;;7.65;2.22;;;;;;;;;;4902750;29;20051;-77
2022/10/02 15:35:42;;;;;;;5.20;2.10;;;;;;;;;;4907639;29;20036;-78
2022/10/02 15:38:11;;;;;;;6.65;2.38;;;;;;;;;;4899554;29;20052;-77
2022/10/02 15:40:56;;;;;;;9.70;2.58;;;;;;;;;;4889461;29;20124;-81
2022/10/02 15:43:38;;;;;;;7.80;2.88;;;;;;;;;;4889611;29;20076;-78
2022/10/02 15:46:23;;;;;;;8.70;2.38;;;;;;;;;;4889209;29;20029;-77
2022/10/02 15:48:59;;;;;;;6.80;2.33;;;;;;;;;;4903264;29;20089;-78
2022/10/02 15:51:25;;;;;;;6.07;2.60;;;;;;;;;;4902334;29;20028;-78
2022/10/02 15:54:14;;;;;;;9.60;2.42;;;;;;;;;;4904697;29;20069;-77
2022/10/02 15:56:59;;;;;;;7.60;2.42;;;;;;;;;;4888275;29;20025;-78
2022/10/02 15:59:33;;;;;;;8.80;2.92;;;;;;;;;;4887401;29;20032;-78
2022/10/02 16:01:59;;;;;;;4.88;2.50;;;;;;;;;;4898577;29;20092;-77
2022/10/02 16:04:45;;;;;;;5.80;2.20;;;;;;;;;;4906120;29;20048;-77
2022/10/02 16:07:33;;;;;;;5.97;2.60;;;;;;;;;;4911885;29;20111;-80